Time;durP1;ratioP1;P1;durP2;ratioP2;P2;SDS_P1;SDS_P2;PMS_P1;PMS_P2;Temp;Humidity;BMP_temperature;BMP_pressure;BME280_temperature;BME280_humidity;BME280_pressure;Samples;Min_cycle;Max_cycle;Signal;HPM_P1;HPM_P2
2022/06/22 00:05:52;;;;;;;1.15;0.40;;;22.60;32.50;;;;;;20917424;28;20061;-64
2022/06/22 00:16:18;;;;;;;1.67;0.28;;;22.40;33.60;;;;;;20918019;28;20056;-60
2022/06/22 00:26:23;;;;;;;4.43;0.50;;;22.20;35.30;;;;;;20916038;28;20073;-61
2022/06/22 00:36:32;;;;;;;2.80;0.45;;;21.90;36.30;;;;;;20915148;28;20049;-59
2022/06/22 00:46:39;;;;;;;3.22;0.60;;;22.50;37.20;;;;;;20913506;28;20049;-61
2022/06/22 00:56:59;;;;;;;3.77;0.50;;;21.70;38.10;;;;;;20913573;28;20282;-61
2022/06/22 01:07:04;;;;;;;2.95;0.40;;;21.60;38.70;;;;;;20913330;28;20053;-60
2022/06/22 01:17:17;;;;;;;1.30;0.40;;;21.30;39.70;;;;;;20911009;28;20470;-63
2022/06/22 01:27:30;;;;;;;2.40;0.60;;;21.20;40.30;;;;;;20913150;28;20073;-61
2022/06/22 01:37:34;;;;;;;1.33;0.32;;;21.20;40.60;;;;;;20911652;28;20094;-62
2022/06/22 01:47:53;;;;;;;2.47;0.50;;;21.10;40.70;;;;;;20910355;28;20049;-63
2022/06/22 01:58:28;;;;;;;1.02;0.30;;;20.90;41.30;;;;;;20916326;28;20053;-61
2022/06/22 02:08:39;;;;;;;3.00;0.40;;;20.60;41.60;;;;;;20926718;28;20404;-63
2022/06/22 02:18:57;;;;;;;1.52;0.40;;;20.40;41.90;;;;;;20926415;28;20056;-64
2022/06/22 02:29:06;;;;;;;2.95;0.40;;;20.30;42.20;;;;;;20924745;28;20088;-62
2022/06/22 02:39:13;;;;;;;1.90;0.30;;;20.10;42.70;;;;;;20924805;28;20053;-61
2022/06/22 02:49:37;;;;;;;2.20;0.38;;;20.00;43.00;;;;;;20923003;28;20053;-63
2022/06/22 02:59:40;;;;;;;1.00;0.20;;;19.90;43.50;;;;;;20922442;28;20049;-63
2022/06/22 03:09:42;;;;;;;3.25;0.40;;;19.70;43.80;;;;;;20922112;28;20094;-64
2022/06/22 03:20:00;;;;;;;2.42;0.30;;;19.50;44.60;;;;;;20920777;28;20107;-63
2022/06/22 03:30:14;;;;;;;1.75;0.38;;;19.60;44.90;;;;;;20920451;28;20069;-63
2022/06/22 03:40:52;;;;;;;1.17;0.30;;;19.30;45.30;;;;;;20920592;28;20080;-63
2022/06/22 03:51:05;;;;;;;1.52;0.40;;;19.20;45.80;;;;;;20910239;28;20053;-62
2022/06/22 04:01:07;;;;;;;1.77;0.20;;;19.20;46.00;;;;;;20910120;28;20052;-63
2022/06/22 04:11:24;;;;;;;3.63;0.50;;;19.00;46.30;;;;;;20911518;28;20068;-59
2022/06/22 04:21:38;;;;;;;1.30;0.37;;;18.90;46.90;;;;;;20910175;28;20405;-64
2022/06/22 04:32:00;;;;;;;2.03;0.60;;;18.80;47.30;;;;;;20917570;28;20049;-62
2022/06/22 04:42:03;;;;;;;2.17;0.70;;;18.80;47.80;;;;;;20914460;28;20537;-63
2022/06/22 04:52:14;;;;;;;1.45;0.40;;;18.80;48.20;;;;;;20914814;28;20048;-62
2022/06/22 05:02:19;;;;;;;1.13;0.43;;;18.60;49.20;;;;;;20913725;28;20049;-62
2022/06/22 05:12:25;;;;;;;4.60;0.70;;;18.40;49.80;;;;;;20913264;28;20053;-62
2022/06/22 05:22:26;;;;;;;3.53;0.60;;;18.50;50.00;;;;;;20911610;28;20053;-63
2022/06/22 05:32:33;;;;;;;5.40;0.60;;;18.50;50.30;;;;;;20911346;28;20053;-61
2022/06/22 05:42:35;;;;;;;4.47;0.50;;;18.60;50.60;;;;;;20910475;28;20068;-62
2022/06/22 05:52:47;;;;;;;2.50;0.63;;;18.60;50.80;;;;;;20912455;28;20049;-62
2022/06/22 06:02:57;;;;;;;3.83;0.80;;;18.70;50.90;;;;;;20910614;28;20048;-63
2022/06/22 06:13:22;;;;;;;2.83;0.90;;;18.70;51.10;;;;;;20910814;28;20049;-62
2022/06/22 06:23:50;;;;;;;2.08;0.60;;;18.80;51.20;;;;;;20909515;28;20450;-62
2022/06/22 06:33:58;;;;;;;4.10;0.73;;;19.00;51.30;;;;;;20911187;28;20045;-61
2022/06/22 06:44:05;;;;;;;3.88;0.93;;;19.10;50.90;;;;;;20913596;28;20132;-62
2022/06/22 06:55:03;;;;;;;2.63;0.80;;;19.20;50.70;;;;;;20924134;28;20045;-63
2022/06/22 07:05:15;;;;;;;5.85;0.85;;;19.80;49.90;;;;;;20913183;28;20059;-61
2022/06/22 07:15:22;;;;;;;6.30;0.90;;;20.50;48.40;;;;;;20912973;28;20052;-62
2022/06/22 07:25:32;;;;;;;2.13;0.53;;;21.50;46.20;;;;;;20911783;28;20055;-62
2022/06/22 07:35:48;;;;;;;2.97;0.60;;;22.10;45.00;;;;;;20915319;28;20049;-62
2022/06/22 07:45:50;;;;;;;3.97;0.82;;;22.60;43.90;;;;;;20918847;28;20057;-62
2022/06/22 07:56:11;;;;;;;3.10;0.95;;;;;;;;;;20918720;28;20048;-60
2022/06/22 08:06:27;;;;;;;1.95;0.60;;;23.30;42.10;;;;;;20915788;28;20060;-63
2022/06/22 08:17:00;;;;;;;4.57;0.60;;;25.30;39.20;;;;;;20914033;28;20053;-65
2022/06/22 08:27:23;;;;;;;2.65;0.90;;;25.30;38.90;;;;;;20907870;28;20095;-65
2022/06/22 08:37:39;;;;;;;2.28;0.50;;;25.20;39.00;;;;;;20911432;28;20114;-65
2022/06/22 08:48:15;;;;;;;1.95;0.60;;;25.10;38.80;;;;;;20913966;28;20136;-68
2022/06/22 08:58:58;;;;;;;5.68;0.60;;;24.90;38.30;;;;;;20913074;28;20478;-58
2022/06/22 09:09:14;;;;;;;2.47;0.60;;;24.60;37.90;;;;;;20910815;28;20045;-64
2022/06/22 09:19:39;;;;;;;3.20;0.70;;;24.90;37.70;;;;;;20911838;28;20068;-65
2022/06/22 09:30:00;;;;;;;3.17;0.60;;;24.40;37.60;;;;;;20911294;28;20048;-73
2022/06/22 09:40:20;;;;;;;5.00;0.98;;;24.50;37.50;;;;;;20912390;28;20072;-65
2022/06/22 09:50:32;;;;;;;5.57;1.80;;;24.90;36.90;;;;;;20916514;28;20401;-66
2022/06/22 10:00:52;;;;;;;4.90;0.88;;;24.30;37.40;;;;;;20913341;28;20053;-66
2022/06/22 10:11:13;;;;;;;1.70;0.50;;;24.40;37.60;;;;;;20906172;28;20040;-67
2022/06/22 10:21:35;;;;;;;4.80;0.93;;;25.20;36.50;;;;;;20914485;28;20048;-71
2022/06/22 10:31:55;;;;;;;2.88;0.80;;;25.20;36.30;;;;;;20920288;28;20045;-64
2022/06/22 10:53:38;;;;;;;1.58;0.43;;;25.80;35.60;;;;;;20923236;28;20136;-62
2022/06/22 11:03:57;;;;;;;2.25;0.80;;;25.70;36.10;;;;;;20923171;28;20061;-63
2022/06/22 11:14:18;;;;;;;2.55;0.40;;;25.70;36.10;;;;;;20922033;28;20132;-62
2022/06/22 11:24:50;;;;;;;3.67;0.40;;;25.80;35.70;;;;;;20918804;28;20508;-56
2022/06/22 11:35:19;;;;;;;3.80;0.50;;;25.90;35.10;;;;;;20921665;28;20102;-57
2022/06/22 11:46:01;;;;;;;2.55;0.60;;;26.00;34.80;;;;;;20921710;28;20052;-56
2022/06/22 11:56:30;;;;;;;3.22;0.70;;;25.90;34.80;;;;;;20907048;28;20465;-60
2022/06/22 12:07:20;;;;;;;5.30;0.65;;;25.90;34.40;;;;;;20903433;28;20163;-59
2022/06/22 12:17:54;;;;;;;5.05;0.57;;;26.10;34.20;;;;;;20660860;28;20054;-60
2022/06/22 12:28:14;;;;;;;1.83;0.60;;;26.10;33.70;;;;;;20333329;28;20041;-60
2022/06/22 12:38:31;;;;;;;3.15;0.60;;;25.70;34.60;;;;;;20185954;29;20139;-62
2022/06/22 12:48:39;;;;;;;2.08;0.52;;;25.90;34.50;;;;;;20299212;28;20059;-67
2022/06/22 12:59:04;;;;;;;1.63;0.50;;;25.60;34.20;;;;;;20606354;28;20478;-66
2022/06/22 13:09:06;;;;;;;8.75;1.45;;;25.40;34.50;;;;;;20830925;28;20084;-71
2022/06/22 13:19:37;;;;;;;5.82;0.52;;;25.30;34.50;;;;;;20829976;28;20425;-67
2022/06/22 13:29:43;;;;;;;6.10;0.68;;;25.60;34.20;;;;;;20743372;28;20054;-67
2022/06/22 13:40:03;;;;;;;5.72;0.60;;;25.70;34.10;;;;;;20739611;28;20184;-64
2022/06/22 14:01:16;;;;;;;6.38;1.33;;;26.00;33.70;;;;;;20792485;28;20053;-66
2022/06/22 14:11:30;;;;;;;2.85;0.40;;;26.20;33.70;;;;;;20878620;28;20045;-65
2022/06/22 14:21:44;;;;;;;12.68;0.98;;;26.20;33.20;;;;;;20842929;28;20085;-66
2022/06/22 14:32:04;;;;;;;5.43;0.75;;;26.40;33.20;;;;;;20842696;28;20478;-67
2022/06/22 14:42:21;;;;;;;2.78;0.40;;;26.40;33.20;;;;;;20842422;28;20060;-64
2022/06/22 14:52:57;;;;;;;3.40;0.40;;;25.90;33.40;;;;;;20842124;28;20409;-66
2022/06/22 15:03:20;;;;;;;0.63;0.30;;;25.80;33.40;;;;;;20840110;28;20167;-66
2022/06/22 15:13:44;;;;;;;2.28;0.47;;;25.90;33.40;;;;;;20841016;28;20077;-67
2022/06/22 15:23:51;;;;;;;2.08;0.60;;;25.70;33.40;;;;;;20838554;28;20049;-65
2022/06/22 15:34:12;;;;;;;0.98;0.32;;;26.00;33.20;;;;;;20837641;28;20045;-64
2022/06/22 15:44:24;;;;;;;1.83;0.52;;;26.10;34.10;;;;;;20837613;28;20049;-64
2022/06/22 15:54:44;;;;;;;2.60;1.13;;;26.10;33.20;;;;;;20869715;28;20486;-65
2022/06/22 16:05:21;;;;;;;3.33;0.40;;;26.10;33.00;;;;;;20837135;28;20128;-64
2022/06/22 16:15:28;;;;;;;;;;;25.70;33.40;;;;;;20836330;28;20085;-65
2022/06/22 16:25:58;;;;;;;0.77;0.40;;;25.40;33.30;;;;;;20833827;28;19921;-64
2022/06/22 16:36:07;;;;;;;2.85;0.32;;;25.70;33.50;;;;;;20848821;28;20049;-70
2022/06/22 16:46:19;;;;;;;1.02;0.50;;;25.90;33.20;;;;;;20908845;28;20096;-68
2022/06/22 16:56:35;;;;;;;1.88;0.40;;;25.70;33.60;;;;;;20912994;28;20045;-67
2022/06/22 17:07:11;;;;;;;2.28;0.40;;;25.90;33.30;;;;;;20912705;28;20053;-63
2022/06/22 17:17:18;;;;;;;3.63;0.70;;;25.90;33.30;;;;;;20903660;28;20048;-65
2022/06/22 17:27:32;;;;;;;3.70;0.57;;;25.70;33.50;;;;;;20903422;28;20049;-63
2022/06/22 17:37:52;;;;;;;1.50;0.82;;;25.50;33.80;;;;;;20901912;28;20382;-65
2022/06/22 17:48:17;;;;;;;3.47;0.35;;;25.30;34.10;;;;;;20906077;28;20045;-64
2022/06/22 17:58:28;;;;;;;1.30;0.43;;;25.10;34.50;;;;;;20910356;28;20434;-64
2022/06/22 18:08:48;;;;;;;1.48;0.52;;;25.10;34.40;;;;;;20912290;28;20460;-64
2022/06/22 18:18:51;;;;;;;1.73;0.70;;;25.10;34.90;;;;;;20909662;28;20159;-66
2022/06/22 18:29:00;;;;;;;2.03;0.60;;;25.10;35.10;;;;;;20911268;28;20124;-65
2022/06/22 18:49:45;;;;;;;3.78;0.80;;;24.80;35.70;;;;;;20924035;28;20451;-72
2022/06/22 18:59:51;;;;;;;2.58;0.63;;;24.90;36.80;;;;;;20923154;28;20229;-61
2022/06/22 19:10:27;;;;;;;2.80;0.40;;;25.40;36.40;;;;;;20923944;28;20037;-61
2022/06/22 19:20:37;;;;;;;4.25;0.75;;;25.60;35.30;;;;;;20828181;28;20061;-60
2022/06/22 19:31:06;;;;;;;2.20;0.50;;;25.60;36.20;;;;;;20830161;28;20049;-59
2022/06/22 19:41:18;;;;;;;1.17;0.70;;;25.40;36.60;;;;;;20819849;28;20045;-58
2022/06/22 19:51:35;;;;;;;4.50;0.93;;;25.40;36.30;;;;;;20855295;28;20163;-55
2022/06/22 20:01:59;;;;;;;1.92;0.70;;;25.40;36.50;;;;;;20915444;28;20053;-58
2022/06/22 20:12:39;;;;;;;5.35;0.80;;;25.40;36.60;;;;;;20914446;28;20045;-55
2022/06/22 20:22:59;;;;;;;2.80;0.70;;;25.30;37.00;;;;;;20905715;28;20539;-76
2022/06/22 20:33:34;;;;;;;2.63;0.70;;;25.30;37.30;;;;;;20907417;28;20588;-61
2022/06/22 20:43:46;;;;;;;3.00;0.93;;;23.90;38.10;;;;;;20890536;28;20045;-62
2022/06/22 20:54:00;;;;;;;3.70;0.98;;;23.40;39.00;;;;;;20882195;28;20132;-61
2022/06/22 21:04:09;;;;;;;3.55;0.75;;;23.20;39.50;;;;;;20831095;28;20095;-62
2022/06/22 21:14:20;;;;;;;6.63;3.78;;;23.00;39.90;;;;;;20831631;28;20067;-61
2022/06/22 21:24:22;;;;;;;5.28;2.38;;;22.90;40.00;;;;;;20829581;28;20513;-61
2022/06/22 21:34:31;;;;;;;2.83;1.10;;;22.70;40.30;;;;;;20830692;28;20093;-61
2022/06/22 21:44:40;;;;;;;3.28;0.82;;;22.60;40.70;;;;;;20829750;28;20057;-59
2022/06/22 21:54:58;;;;;;;1.95;0.80;;;22.60;41.00;;;;;;20828667;28;20053;-60
2022/06/22 22:05:29;;;;;;;2.95;1.33;;;22.50;41.30;;;;;;20829070;28;20056;-61
2022/06/22 22:15:33;;;;;;;1.25;0.52;;;22.40;41.60;;;;;;20836051;28;20057;-61
2022/06/22 22:25:39;;;;;;;2.75;1.00;;;22.30;41.80;;;;;;20843774;28;20092;-62
2022/06/22 22:35:44;;;;;;;2.65;0.82;;;22.20;42.30;;;;;;20843956;28;20068;-60
2022/06/22 22:45:46;;;;;;;3.72;0.70;;;22.10;42.70;;;;;;20843327;28;20099;-64
2022/06/22 22:55:49;;;;;;;1.02;0.43;;;22.00;43.30;;;;;;20842316;28;20455;-59
2022/06/22 23:06:12;;;;;;;1.88;0.57;;;21.60;44.50;;;;;;20840338;28;20184;-61
2022/06/22 23:16:31;;;;;;;3.17;0.70;;;21.40;45.30;;;;;;20841102;28;20551;-66
2022/06/22 23:26:33;;;;;;;0.85;0.50;;;21.30;45.70;;;;;;20837850;28;20156;-60
2022/06/22 23:36:36;;;;;;;4.75;1.38;;;21.30;45.80;;;;;;20839733;28;20053;-59
2022/06/22 23:46:43;;;;;;;1.33;0.57;;;21.20;46.30;;;;;;20839964;28;20045;-61
2022/06/22 23:56:55;;;;;;;3.20;0.70;;;21.20;46.70;;;;;;20837215;28;20103;-60
